createdAt,value
2018-02-05T00:00:07.208Z,99.99
2018-02-05T00:02:00.195Z,99.99
2018-02-05T00:03:00.248Z,99.99
2018-02-05T00:04:53.246Z,99.99
2018-02-05T00:05:53.281Z,99.99
2018-02-05T00:07:46.253Z,99.99
2018-02-05T00:08:46.306Z,99.99
2018-02-05T00:10:39.299Z,99.99
2018-02-05T00:11:39.332Z,99.99
2018-02-05T00:13:32.306Z,99.99
2018-02-05T00:14:32.360Z,99.99
2018-02-05T00:16:25.355Z,99.99
2018-02-05T00:17:25.395Z,99.99
2018-02-05T00:19:18.382Z,99.99
2018-02-05T00:20:18.415Z,99.99
2018-02-05T00:22:11.390Z,99.99
2018-02-05T00:23:11.443Z,99.99
2018-02-05T00:25:04.437Z,99.99
2018-02-05T00:26:04.466Z,99.99
2018-02-05T00:27:57.448Z,99.99
2018-02-05T00:28:57.500Z,99.99
2018-02-05T00:30:50.502Z,99.99
2018-02-05T00:31:50.535Z,99.99
2018-02-05T00:33:43.506Z,99.99
2018-02-05T00:34:43.561Z,99.99
2018-02-05T00:36:36.556Z,99.99
2018-02-05T00:37:36.589Z,99.99
2018-02-05T00:39:29.586Z,99.99
2018-02-05T00:40:29.619Z,99.99
2018-02-05T00:42:22.588Z,99.99
2018-02-05T00:43:22.644Z,99.99
2018-02-05T00:45:15.636Z,99.99
2018-02-05T00:46:15.669Z,99.99
2018-02-05T00:48:08.655Z,99.99
2018-02-05T00:49:08.694Z,99.99
2018-02-05T00:51:01.690Z,99.99
2018-02-05T00:52:01.722Z,99.99
2018-02-05T00:53:54.693Z,99.99
2018-02-05T00:54:54.755Z,99.99
2018-02-05T00:56:47.769Z,99.99
2018-02-05T00:57:47.804Z,99.99
2018-02-05T00:59:40.795Z,99.99
2018-02-05T01:00:40.830Z,99.99
2018-02-05T01:02:33.802Z,99.99
2018-02-05T01:03:33.854Z,99.99
2018-02-05T01:05:26.847Z,99.99
2018-02-05T01:06:26.881Z,99.99
2018-02-05T01:08:20.387Z,99.99
2018-02-05T01:09:19.981Z,99.99
2018-02-05T01:11:13.426Z,99.99
2018-02-05T01:12:13.439Z,99.99
2018-02-05T01:14:06.410Z,99.99
2018-02-05T01:15:06.466Z,99.99
2018-02-05T01:16:59.457Z,99.99
2018-02-05T01:17:59.491Z,99.99
2018-02-05T01:19:52.484Z,99.99
2018-02-05T01:20:52.513Z,99.99
2018-02-05T01:22:45.488Z,99.99
2018-02-05T01:23:45.539Z,99.99
2018-02-05T01:25:38.533Z,99.99
2018-02-05T01:26:38.565Z,99.99
2018-02-05T01:28:31.544Z,99.99
2018-02-05T01:29:31.597Z,99.99
2018-02-05T01:31:24.592Z,99.99
2018-02-05T01:32:25.601Z,99.99
2018-02-05T01:34:17.594Z,99.99
2018-02-05T01:35:17.645Z,99.99
2018-02-05T01:37:10.636Z,99.99
2018-02-05T01:38:10.670Z,99.99
2018-02-05T01:40:04.669Z,99.99
2018-02-05T01:41:04.698Z,99.99
2018-02-05T01:42:57.668Z,99.99
2018-02-05T01:43:57.722Z,99.99
2018-02-05T01:45:50.714Z,99.99
2018-02-05T01:46:50.747Z,99.99
2018-02-05T01:48:43.724Z,99.99
2018-02-05T01:49:43.774Z,99.99
2018-02-05T01:51:36.766Z,99.99
2018-02-05T01:52:36.797Z,99.99
2018-02-05T01:54:29.786Z,99.99
2018-02-05T01:55:29.830Z,99.99
2018-02-05T01:57:22.820Z,99.99
2018-02-05T01:58:22.852Z,99.99
2018-02-05T02:00:15.844Z,99.99
2018-02-05T02:01:15.883Z,99.99
2018-02-05T02:03:08.851Z,99.99
2018-02-05T02:04:08.904Z,99.99
2018-02-05T02:06:01.898Z,99.99
2018-02-05T02:07:01.934Z,99.99
2018-02-05T02:08:54.901Z,99.99
2018-02-05T02:09:54.966Z,99.99
2018-02-05T02:11:48.457Z,99.99
2018-02-05T02:12:48.486Z,99.99
2018-02-05T02:14:41.457Z,99.99
2018-02-05T02:15:41.509Z,99.99
2018-02-05T02:17:34.499Z,99.99
2018-02-05T02:18:34.533Z,99.99
2018-02-05T02:20:27.523Z,99.99
2018-02-05T02:21:27.556Z,99.99
2018-02-05T02:23:20.528Z,99.99
2018-02-05T02:24:20.602Z,99.99
2018-02-05T02:26:13.577Z,99.99
2018-02-05T02:27:13.610Z,99.99
2018-02-05T02:29:06.585Z,99.99
2018-02-05T02:30:06.642Z,99.99
2018-02-05T02:31:59.631Z,99.99
2018-02-05T02:32:59.664Z,99.99
2018-02-05T02:34:52.638Z,99.99
2018-02-05T02:35:52.690Z,99.99
2018-02-05T02:37:45.697Z,99.99
2018-02-05T02:38:45.723Z,99.99
2018-02-05T02:40:38.714Z,99.99
2018-02-05T02:41:38.749Z,99.99
2018-02-05T02:43:31.720Z,99.99
2018-02-05T02:44:31.772Z,99.99
2018-02-05T02:46:24.785Z,99.99
2018-02-05T02:47:24.797Z,99.99
2018-02-05T02:49:17.769Z,99.99
2018-02-05T02:50:17.822Z,99.99
2018-02-05T02:52:10.817Z,99.99
2018-02-05T02:53:10.852Z,99.99
2018-02-05T02:55:03.830Z,99.99
2018-02-05T02:56:03.877Z,99.99
2018-02-05T02:57:56.869Z,99.99
2018-02-05T02:58:56.901Z,99.99
2018-02-05T03:00:49.892Z,99.99
2018-02-05T03:01:49.925Z,99.99
2018-02-05T03:03:42.902Z,99.99
2018-02-05T03:04:42.956Z,99.99
2018-02-05T03:06:35.946Z,99.99
2018-02-05T03:07:35.981Z,99.99
2018-02-05T03:09:28.958Z,99.99
2018-02-05T03:10:29.012Z,99.99
2018-02-05T03:12:22.003Z,99.99
2018-02-05T03:13:22.035Z,99.99
2018-02-05T03:15:15.007Z,99.99
2018-02-05T03:16:15.061Z,99.99
2018-02-05T03:18:08.050Z,99.99
2018-02-05T03:19:08.082Z,99.99
2018-02-05T03:21:01.073Z,99.99
2018-02-05T03:22:01.106Z,99.99
2018-02-05T03:23:54.079Z,99.99
2018-02-05T03:24:54.131Z,99.99
2018-02-05T03:26:47.120Z,99.99
2018-02-05T03:27:47.157Z,99.99
2018-02-05T03:29:40.125Z,99.99
2018-02-05T03:30:40.178Z,99.99
2018-02-05T03:32:33.173Z,99.99
2018-02-05T03:33:33.203Z,99.99
2018-02-05T03:35:26.182Z,99.99
2018-02-05T03:36:26.227Z,99.99
2018-02-05T03:38:19.218Z,99.99
2018-02-05T03:39:19.295Z,99.99
2018-02-05T03:41:12.240Z,99.99
2018-02-05T03:42:12.273Z,99.99
2018-02-05T03:44:05.244Z,99.99
2018-02-05T03:45:05.296Z,99.99
2018-02-05T03:46:58.291Z,99.99
2018-02-05T03:47:58.325Z,99.99
2018-02-05T03:49:51.303Z,99.99
2018-02-05T03:50:51.348Z,99.99
2018-02-05T03:52:44.341Z,99.99
2018-02-05T03:53:44.374Z,99.99
2018-02-05T03:55:37.345Z,99.99
2018-02-05T03:56:37.398Z,99.99
2018-02-05T03:58:30.440Z,99.99
2018-02-05T03:59:31.016Z,99.99
2018-02-05T04:01:23.471Z,99.99
2018-02-05T04:02:23.500Z,99.99
2018-02-05T04:04:16.469Z,99.99
2018-02-05T04:05:16.525Z,99.99
2018-02-05T04:07:09.522Z,99.99
2018-02-05T04:08:09.554Z,99.99
2018-02-05T04:10:02.525Z,99.99
2018-02-05T04:11:02.577Z,99.99
2018-02-05T04:12:55.574Z,99.99
2018-02-05T04:13:55.604Z,99.99
2018-02-05T04:15:48.579Z,99.99
2018-02-05T04:16:48.626Z,99.99
2018-02-05T04:18:41.632Z,99.99
2018-02-05T04:19:41.654Z,99.99
2018-02-05T04:21:34.654Z,99.99
2018-02-05T04:22:34.683Z,99.99
2018-02-05T04:24:27.654Z,99.99
2018-02-05T04:25:27.706Z,99.99
2018-02-05T04:27:20.704Z,99.99
2018-02-05T04:28:20.739Z,99.99
2018-02-05T04:30:13.722Z,99.99
2018-02-05T04:31:13.769Z,99.99
2018-02-05T04:33:06.762Z,99.99
2018-02-05T04:34:06.791Z,99.99
2018-02-05T04:35:59.763Z,99.99
2018-02-05T04:36:59.815Z,99.99
2018-02-05T04:38:52.809Z,99.99
2018-02-05T04:39:52.840Z,99.99
2018-02-05T04:41:45.836Z,99.99
2018-02-05T04:42:45.865Z,99.99
2018-02-05T04:44:38.843Z,99.99
2018-02-05T04:45:38.894Z,99.99
2018-02-05T04:47:31.884Z,99.99
2018-02-05T04:48:31.916Z,99.99
2018-02-05T04:50:24.888Z,99.99
2018-02-05T04:51:24.939Z,99.99
2018-02-05T04:53:17.930Z,99.99
2018-02-05T04:54:17.963Z,99.99
2018-02-05T04:56:10.935Z,99.99
2018-02-05T04:57:10.988Z,99.99
2018-02-05T04:59:03.983Z,99.99
2018-02-05T05:00:04.012Z,99.99
2018-02-05T05:01:57.001Z,99.99
2018-02-05T05:02:57.036Z,99.99
2018-02-05T05:04:50.006Z,99.99
2018-02-05T05:05:50.060Z,99.99
2018-02-05T05:07:43.052Z,99.99
2018-02-05T05:08:43.087Z,99.99
2018-02-05T05:10:36.058Z,99.99
2018-02-05T05:11:36.107Z,99.99
2018-02-05T05:13:29.107Z,99.99
2018-02-05T05:14:29.139Z,99.99
2018-02-05T05:16:22.110Z,99.99
2018-02-05T05:17:22.163Z,99.99
2018-02-05T05:19:15.157Z,99.99
2018-02-05T05:20:15.187Z,99.99
2018-02-05T05:22:08.178Z,99.99
2018-02-05T05:23:08.210Z,99.99
2018-02-05T05:25:01.182Z,99.99
2018-02-05T05:26:01.234Z,99.99
2018-02-05T05:27:54.226Z,99.99
2018-02-05T05:28:54.260Z,99.99
2018-02-05T05:30:47.236Z,99.99
2018-02-05T05:31:47.286Z,99.99
2018-02-05T05:33:40.280Z,99.99
2018-02-05T05:34:40.314Z,99.99
2018-02-05T05:36:33.285Z,99.99
2018-02-05T05:37:33.337Z,99.99
2018-02-05T05:39:26.332Z,99.99
2018-02-05T05:40:26.366Z,99.99
2018-02-05T05:42:19.356Z,99.99
2018-02-05T05:43:19.387Z,99.99
2018-02-05T05:45:12.359Z,99.99
2018-02-05T05:46:12.410Z,99.99
2018-02-05T05:48:05.403Z,99.99
2018-02-05T05:49:05.439Z,99.99
2018-02-05T05:50:58.413Z,99.99
2018-02-05T05:51:58.461Z,99.99
2018-02-05T05:53:51.453Z,99.99
2018-02-05T05:54:51.486Z,99.99
2018-02-05T05:56:44.472Z,99.99
2018-02-05T05:57:44.511Z,99.99
2018-02-05T05:59:37.504Z,99.99
2018-02-05T06:00:37.536Z,99.99
2018-02-05T06:02:30.528Z,99.99
2018-02-05T06:03:30.561Z,99.99
2018-02-05T06:05:23.542Z,99.99
2018-02-05T06:06:23.612Z,99.99
2018-02-05T06:08:16.579Z,99.99
2018-02-05T06:09:16.617Z,99.99
2018-02-05T06:11:09.595Z,99.99
2018-02-05T06:12:09.652Z,99.99
2018-02-05T06:14:02.645Z,99.99
2018-02-05T06:15:02.674Z,99.99
2018-02-05T06:16:55.650Z,99.99
2018-02-05T06:17:55.699Z,99.99
2018-02-05T06:19:48.702Z,99.99
2018-02-05T06:20:48.736Z,99.99
2018-02-05T06:22:41.720Z,99.99
2018-02-05T06:23:41.748Z,99.99
2018-02-05T06:25:34.723Z,99.99
2018-02-05T06:26:34.771Z,99.99
2018-02-05T06:28:27.764Z,99.99
2018-02-05T06:29:27.801Z,99.99
2018-02-05T06:31:20.771Z,99.99
2018-02-05T06:32:20.824Z,99.99
2018-02-05T06:34:13.821Z,99.99
2018-02-05T06:35:13.848Z,99.99
2018-02-05T06:37:06.834Z,99.99
2018-02-05T06:38:06.878Z,99.99
2018-02-05T06:39:59.876Z,99.99
2018-02-05T06:40:59.904Z,99.99
2018-02-05T06:42:52.895Z,99.99
2018-02-05T06:43:52.926Z,99.99
2018-02-05T06:45:45.899Z,99.99
2018-02-05T06:46:45.952Z,99.99
2018-02-05T06:48:38.947Z,99.99
2018-02-05T06:49:38.979Z,99.99
2018-02-05T06:51:31.958Z,99.99
2018-02-05T06:52:32.006Z,99.99
2018-02-05T06:54:25.001Z,99.99
2018-02-05T06:55:25.030Z,99.99
2018-02-05T06:57:18.000Z,99.99
2018-02-05T06:58:18.055Z,99.99
2018-02-05T07:00:11.063Z,99.99
2018-02-05T07:01:11.079Z,99.99
2018-02-05T07:03:04.082Z,99.99
2018-02-05T07:04:04.116Z,99.99
2018-02-05T07:05:57.097Z,99.99
2018-02-05T07:06:57.151Z,99.99
2018-02-05T07:08:50.663Z,99.99
2018-02-05T07:09:50.682Z,99.99
2018-02-05T07:11:43.671Z,99.99
2018-02-05T07:12:43.714Z,99.99
2018-02-05T07:14:36.701Z,99.99
2018-02-05T07:15:36.731Z,99.99
2018-02-05T07:17:29.715Z,99.99
2018-02-05T07:18:29.769Z,99.99
2018-02-05T07:20:22.768Z,99.99
2018-02-05T07:21:22.798Z,99.99
2018-02-05T07:23:15.796Z,99.99
2018-02-05T07:24:15.821Z,99.99
2018-02-05T07:26:08.819Z,99.99
2018-02-05T07:27:08.854Z,99.99
2018-02-05T07:29:01.849Z,99.99
2018-02-05T07:30:01.883Z,99.99
2018-02-05T07:31:54.871Z,99.99
2018-02-05T07:32:54.916Z,99.99
2018-02-05T07:34:47.908Z,99.99
2018-02-05T07:35:47.940Z,99.99
2018-02-05T07:37:40.912Z,99.99
2018-02-05T07:38:40.965Z,99.99
2018-02-05T07:40:33.960Z,99.99
2018-02-05T07:41:33.993Z,99.99
2018-02-05T07:43:26.984Z,99.99
2018-02-05T07:44:27.017Z,99.99
2018-02-05T07:46:19.993Z,99.99
2018-02-05T07:47:20.045Z,99.99
2018-02-05T07:49:13.040Z,99.99
2018-02-05T07:50:13.074Z,99.99
2018-02-05T07:52:06.047Z,99.99
2018-02-05T07:53:06.100Z,99.99
2018-02-05T07:54:59.093Z,99.99
2018-02-05T07:55:59.145Z,99.99
2018-02-05T07:57:52.106Z,99.99
2018-02-05T07:58:52.157Z,99.99
2018-02-05T08:00:45.150Z,99.99
2018-02-05T08:01:45.184Z,99.99
2018-02-05T08:03:38.176Z,99.99
2018-02-05T08:04:38.209Z,99.99
2018-02-05T08:06:31.189Z,99.99
2018-02-05T08:07:31.239Z,99.99
2018-02-05T08:09:24.745Z,99.99
2018-02-05T08:10:24.774Z,99.99
2018-02-05T08:12:17.745Z,99.99
2018-02-05T08:13:17.799Z,99.99
2018-02-05T08:15:10.794Z,99.99
2018-02-05T08:16:10.831Z,99.99
2018-02-05T08:18:03.801Z,99.99
2018-02-05T08:19:03.856Z,99.99
2018-02-05T08:20:56.853Z,99.99
2018-02-05T08:21:56.892Z,99.99
2018-02-05T08:23:49.887Z,99.99
2018-02-05T08:24:49.919Z,99.99
2018-02-05T08:26:42.906Z,99.99
2018-02-05T08:27:42.951Z,99.99
2018-02-05T08:29:35.946Z,99.99
2018-02-05T08:30:35.981Z,99.99
2018-02-05T08:32:28.951Z,99.99
2018-02-05T08:33:29.040Z,99.99
2018-02-05T08:35:21.997Z,99.99
2018-02-05T08:36:22.031Z,99.99
2018-02-05T08:38:15.067Z,99.99
2018-02-05T08:39:15.122Z,99.99
2018-02-05T08:41:08.117Z,99.99
2018-02-05T08:42:08.157Z,99.99
2018-02-05T08:44:01.190Z,99.99
2018-02-05T08:45:01.178Z,99.99
2018-02-05T08:46:54.154Z,99.99
2018-02-05T08:47:54.214Z,99.99
2018-02-05T08:49:47.204Z,99.99
2018-02-05T08:50:47.237Z,99.99
2018-02-05T08:52:40.422Z,99.99
2018-02-05T08:53:40.529Z,99.99
2018-02-05T08:55:33.471Z,99.99
2018-02-05T08:56:33.498Z,99.99
2018-02-05T08:58:26.488Z,99.99
2018-02-05T08:59:26.528Z,99.99
2018-02-05T09:01:19.528Z,99.99
2018-02-05T09:02:19.554Z,99.99
2018-02-05T09:04:12.551Z,99.99
2018-02-05T09:05:12.589Z,99.99
2018-02-05T09:07:05.558Z,99.99
2018-02-05T09:08:05.617Z,99.99
2018-02-05T09:09:58.612Z,99.99
2018-02-05T09:10:58.644Z,99.99
2018-02-05T09:12:51.633Z,99.99
2018-02-05T09:13:51.671Z,99.99
2018-02-05T09:15:44.675Z,99.99
2018-02-05T09:16:44.711Z,99.99
2018-02-05T09:18:37.684Z,99.99
2018-02-05T09:19:37.738Z,99.99
2018-02-05T09:21:30.740Z,99.99
2018-02-05T09:22:30.766Z,99.99
2018-02-05T09:24:23.766Z,99.99
2018-02-05T09:25:23.797Z,99.99
2018-02-05T09:27:16.778Z,99.99
2018-02-05T09:28:16.832Z,99.99
2018-02-05T09:30:09.830Z,99.99
2018-02-05T09:31:09.910Z,99.99
2018-02-05T09:33:02.845Z,99.99
2018-02-05T09:34:02.900Z,99.99
2018-02-05T09:35:55.890Z,99.99
2018-02-05T09:36:55.923Z,99.99
2018-02-05T09:38:48.904Z,99.99
2018-02-05T09:39:48.954Z,99.99
2018-02-05T09:41:41.949Z,99.99
2018-02-05T09:42:41.982Z,99.99
2018-02-05T09:44:34.978Z,99.99
2018-02-05T09:45:35.011Z,99.99
2018-02-05T09:47:28.015Z,99.99
2018-02-05T09:48:28.043Z,99.99
2018-02-05T09:50:21.061Z,99.99
2018-02-05T09:51:21.070Z,99.99
2018-02-05T09:53:14.054Z,99.99
2018-02-05T09:54:14.107Z,99.99
2018-02-05T09:56:07.091Z,99.99
2018-02-05T09:57:07.128Z,99.99
2018-02-05T09:59:00.103Z,99.99
2018-02-05T10:00:00.161Z,99.99
2018-02-05T10:01:53.163Z,99.99
2018-02-05T10:02:53.182Z,99.99
2018-02-05T10:04:46.180Z,99.99
2018-02-05T10:05:46.215Z,99.99
2018-02-05T10:07:39.204Z,99.99
2018-02-05T10:08:39.242Z,99.99
2018-02-05T10:10:32.240Z,99.99
2018-02-05T10:11:32.269Z,99.99
2018-02-05T10:13:25.256Z,99.99
2018-02-05T10:14:25.300Z,99.99
2018-02-05T10:16:18.295Z,99.99
2018-02-05T10:17:18.327Z,99.99
2018-02-05T10:19:11.326Z,99.99
2018-02-05T10:20:11.381Z,99.99
2018-02-05T10:22:04.384Z,99.99
2018-02-05T10:23:04.399Z,99.99
2018-02-05T10:24:57.390Z,99.99
2018-02-05T10:25:57.422Z,99.99
2018-02-05T10:27:50.403Z,99.99
2018-02-05T10:28:50.452Z,99.99
2018-02-05T10:30:43.447Z,99.99
2018-02-05T10:31:43.483Z,99.99
2018-02-05T10:33:36.467Z,99.99
2018-02-05T10:34:36.522Z,99.99
2018-02-05T10:36:29.520Z,99.99
2018-02-05T10:37:29.542Z,99.99
2018-02-05T10:39:22.522Z,99.99
2018-02-05T10:40:22.573Z,99.99
2018-02-05T10:42:15.568Z,99.99
2018-02-05T10:43:15.600Z,99.99
2018-02-05T10:45:08.598Z,99.96
2018-02-05T10:46:08.637Z,99.96
2018-02-05T10:48:01.615Z,98.82
2018-02-05T10:49:01.671Z,99.10
2018-02-05T10:50:54.662Z,98.82
2018-02-05T10:51:54.695Z,98.91
2018-02-05T10:53:47.683Z,97.97
2018-02-05T10:54:47.732Z,97.87
2018-02-05T10:56:40.731Z,98.06
2018-02-05T10:57:40.766Z,97.97
2018-02-05T10:59:33.747Z,97.78
2018-02-05T11:00:33.804Z,98.35
2018-02-05T11:02:26.798Z,97.87
2018-02-05T11:03:26.830Z,97.40
2018-02-05T11:05:19.834Z,96.07
2018-02-05T11:06:19.872Z,94.37
2018-02-05T11:08:12.849Z,94.65
2018-02-05T11:09:12.898Z,94.46
2018-02-05T11:11:05.898Z,93.99
2018-02-05T11:12:05.929Z,93.89
2018-02-05T11:13:58.903Z,93.99
2018-02-05T11:14:58.957Z,93.32
2018-02-05T11:16:51.968Z,93.61
2018-02-05T11:17:51.994Z,93.70
2018-02-05T11:19:44.970Z,93.51
2018-02-05T11:20:45.020Z,93.61
2018-02-05T11:22:38.027Z,93.13
2018-02-05T11:23:38.049Z,93.70
2018-02-05T11:25:31.047Z,93.32
2018-02-05T11:26:31.076Z,94.08
2018-02-05T11:28:24.085Z,94.32
2018-02-05T11:29:24.124Z,93.46
2018-02-05T11:31:17.107Z,91.95
2018-02-05T11:32:17.145Z,91.95
2018-02-05T11:34:10.123Z,90.81
2018-02-05T11:35:10.334Z,91.62
2018-02-05T11:37:03.177Z,92.19
2018-02-05T11:38:03.212Z,92.66
2018-02-05T11:39:56.197Z,93.46
2018-02-05T11:40:56.246Z,92.90
2018-02-05T11:42:49.292Z,93.08
2018-02-05T11:43:49.279Z,92.85
2018-02-05T11:45:42.283Z,92.47
2018-02-05T11:46:42.317Z,92.09
2018-02-05T11:48:35.313Z,92.38
2018-02-05T11:49:35.375Z,92.14
2018-02-05T11:51:28.349Z,90.91
2018-02-05T11:52:28.385Z,90.81
2018-02-05T11:54:21.360Z,89.48
2018-02-05T11:55:21.416Z,89.86
2018-02-05T11:57:14.448Z,88.82
2018-02-05T11:58:14.460Z,88.40
2018-02-05T12:00:07.421Z,88.02
2018-02-05T12:01:07.476Z,87.92
2018-02-05T12:03:00.484Z,88.11
2018-02-05T12:04:00.521Z,88.73
2018-02-05T12:05:53.533Z,87.92
2018-02-05T12:06:53.552Z,87.64
2018-02-05T12:08:46.530Z,88.11
2018-02-05T12:09:46.581Z,88.02
2018-02-05T12:11:39.576Z,88.02
2018-02-05T12:12:39.611Z,88.11
2018-02-05T12:14:32.605Z,87.16
2018-02-05T12:15:32.639Z,86.69
2018-02-05T12:17:25.661Z,87.45
2018-02-05T12:18:25.675Z,87.64
2018-02-05T12:20:18.669Z,87.83
2018-02-05T12:21:18.722Z,87.73
2018-02-05T12:23:11.722Z,87.64
2018-02-05T12:24:11.762Z,87.54
2018-02-05T12:26:04.780Z,87.83
2018-02-05T12:27:04.789Z,88.78
2018-02-05T12:28:57.808Z,89.72
2018-02-05T12:29:58.037Z,90.67
2018-02-05T12:31:50.860Z,89.63
2018-02-05T12:32:50.940Z,89.06
2018-02-05T12:34:43.901Z,88.40
2018-02-05T12:35:43.928Z,88.11
2018-02-05T12:37:36.901Z,87.83
2018-02-05T12:38:36.955Z,88.11
2018-02-05T12:40:30.047Z,88.49
2018-02-05T12:41:29.961Z,88.11
2018-02-05T12:43:22.953Z,88.21
2018-02-05T12:44:22.990Z,87.73
2018-02-05T12:46:16.032Z,88.21
2018-02-05T12:47:16.053Z,87.92
2018-02-05T12:49:08.993Z,87.45
2018-02-05T12:50:09.057Z,87.16
2018-02-05T12:52:02.065Z,86.98
2018-02-05T12:53:02.121Z,87.35
2018-02-05T12:54:55.057Z,87.73
2018-02-05T12:55:55.123Z,88.02
2018-02-05T12:57:48.163Z,87.73
2018-02-05T12:58:48.183Z,88.30
2018-02-05T13:00:41.131Z,88.78
2018-02-05T13:01:41.200Z,89.06
2018-02-05T13:03:34.166Z,89.11
2018-02-05T13:04:34.220Z,88.92
2018-02-05T13:06:27.295Z,88.25
2018-02-05T13:07:27.249Z,88.30
2018-02-05T13:09:20.233Z,88.44
2018-02-05T13:10:20.349Z,88.21
2018-02-05T13:12:13.249Z,88.68
2018-02-05T13:13:13.326Z,88.49
2018-02-05T13:15:06.266Z,89.44
2018-02-05T13:16:06.316Z,89.25
2018-02-05T13:17:59.317Z,89.25
2018-02-05T13:18:59.346Z,89.53
2018-02-05T13:20:52.326Z,89.91
2018-02-05T13:21:52.382Z,89.25
2018-02-05T13:23:45.375Z,90.39
2018-02-05T13:24:45.410Z,89.82
2018-02-05T13:26:38.407Z,89.82
2018-02-05T13:27:38.453Z,90.10
2018-02-05T13:29:31.416Z,90.58
2018-02-05T13:30:31.474Z,89.34
2018-02-05T13:32:24.468Z,90.58
2018-02-05T13:33:24.510Z,89.25
2018-02-05T13:35:17.473Z,87.92
2018-02-05T13:36:17.552Z,87.83
2018-02-05T13:38:10.525Z,88.40
2018-02-05T13:39:10.554Z,88.49
2018-02-05T13:41:03.537Z,88.78
2018-02-05T13:42:03.601Z,88.68
2018-02-05T13:43:56.580Z,88.78
2018-02-05T13:44:56.618Z,88.78
2018-02-05T13:46:49.608Z,88.49
2018-02-05T13:47:49.643Z,88.49
2018-02-05T13:49:42.618Z,89.15
2018-02-05T13:50:42.670Z,89.67
2018-02-05T13:52:35.664Z,88.96
2018-02-05T13:53:35.698Z,88.68
2018-02-05T13:55:28.673Z,88.96
2018-02-05T13:56:28.730Z,88.68
2018-02-05T13:58:21.722Z,88.35
2018-02-05T13:59:21.798Z,88.30
2018-02-05T14:01:14.744Z,88.59
2018-02-05T14:02:14.786Z,88.21
2018-02-05T14:04:07.782Z,88.96
2018-02-05T14:05:07.815Z,89.06
2018-02-05T14:07:00.817Z,88.87
2018-02-05T14:08:00.846Z,89.06
2018-02-05T14:09:53.821Z,88.96
2018-02-05T14:10:53.875Z,88.87
2018-02-05T14:12:46.869Z,89.34
2018-02-05T14:13:46.905Z,88.87
2018-02-05T14:15:39.882Z,87.83
2018-02-05T14:16:39.931Z,88.40
2018-02-05T14:18:32.941Z,88.21
2018-02-05T14:19:32.967Z,88.78
2018-02-05T14:21:25.940Z,88.78
2018-02-05T14:22:26.045Z,89.06
2018-02-05T14:24:18.999Z,88.87
2018-02-05T14:25:19.035Z,88.49
2018-02-05T14:27:12.027Z,89.06
2018-02-05T14:28:12.111Z,89.06
2018-02-05T14:30:05.041Z,88.40
2018-02-05T14:31:05.097Z,88.02
2018-02-05T14:32:58.095Z,88.02
2018-02-05T14:33:58.131Z,87.64
2018-02-05T14:35:51.105Z,87.92
2018-02-05T14:36:51.164Z,88.49
2018-02-05T14:38:44.200Z,88.30
2018-02-05T14:39:44.358Z,88.96
2018-02-05T14:41:37.174Z,88.30
2018-02-05T14:42:37.234Z,88.78
2018-02-05T14:44:30.225Z,88.40
2018-02-05T14:45:30.253Z,89.15
2018-02-05T14:47:23.246Z,88.21
2018-02-05T14:48:23.281Z,89.34
2018-02-05T14:50:16.262Z,88.02
2018-02-05T14:51:16.313Z,88.40
2018-02-05T14:53:09.309Z,88.49
2018-02-05T14:54:09.342Z,88.30
2018-02-05T14:56:02.314Z,87.92
2018-02-05T14:57:02.370Z,88.49
2018-02-05T14:58:55.370Z,89.06
2018-02-05T14:59:55.402Z,89.34
2018-02-05T15:01:48.388Z,88.30
2018-02-05T15:02:48.430Z,88.40
2018-02-05T15:04:41.423Z,88.68
2018-02-05T15:05:41.459Z,89.25
2018-02-05T15:07:34.538Z,89.44
2018-02-05T15:08:34.497Z,89.06
2018-02-05T15:10:27.468Z,89.06
2018-02-05T15:11:27.521Z,88.40
2018-02-05T15:13:20.524Z,88.59
2018-02-05T15:14:20.557Z,87.64
2018-02-05T15:16:13.535Z,88.30
2018-02-05T15:17:13.590Z,88.49
2018-02-05T15:19:06.585Z,88.02
2018-02-05T15:20:06.616Z,87.92
2018-02-05T15:21:59.590Z,88.21
2018-02-05T15:22:59.646Z,87.83
2018-02-05T15:24:52.640Z,88.17
2018-02-05T15:25:52.676Z,88.17
2018-02-05T15:27:45.670Z,87.59
2018-02-05T15:28:45.703Z,88.17
2018-02-05T15:30:38.684Z,88.54
2018-02-05T15:31:38.733Z,88.26
2018-02-05T15:33:31.728Z,89.01
2018-02-05T15:34:31.787Z,89.01
2018-02-05T15:36:24.968Z,89.58
2018-02-05T15:37:24.801Z,89.39
2018-02-05T15:39:17.805Z,89.30
2018-02-05T15:40:17.837Z,88.73
2018-02-05T15:42:10.837Z,88.73
2018-02-05T15:43:10.880Z,88.54
2018-02-05T15:45:03.912Z,89.39
2018-02-05T15:46:03.929Z,88.64
2018-02-05T15:47:56.925Z,89.39
2018-02-05T15:48:56.982Z,89.49
2018-02-05T15:50:49.909Z,89.01
2018-02-05T15:51:49.957Z,88.54
2018-02-05T15:53:42.960Z,88.73
2018-02-05T15:54:42.998Z,88.35
2018-02-05T15:56:35.967Z,89.01
2018-02-05T15:57:36.021Z,89.20
2018-02-05T15:59:29.017Z,89.01
2018-02-05T16:00:29.144Z,88.82
2018-02-05T16:02:22.030Z,88.92
2018-02-05T16:03:22.099Z,89.30
2018-02-05T16:05:15.603Z,89.39
2018-02-05T16:06:15.623Z,89.20
2018-02-05T16:08:08.647Z,89.11
2018-02-05T16:09:08.641Z,89.20
2018-02-05T16:11:01.622Z,89.20
2018-02-05T16:12:01.676Z,89.20
2018-02-05T16:13:54.668Z,89.11
2018-02-05T16:14:54.700Z,89.39
2018-02-05T16:16:47.698Z,89.39
2018-02-05T16:17:47.764Z,89.20
2018-02-05T16:19:41.283Z,89.20
2018-02-05T16:20:41.268Z,89.01
2018-02-05T16:22:34.317Z,89.01
2018-02-05T16:23:34.293Z,89.20
2018-02-05T16:25:27.308Z,89.01
2018-02-05T16:26:27.329Z,89.20
2018-02-05T16:28:20.477Z,89.39
2018-02-05T16:29:20.348Z,89.30
2018-02-05T16:31:13.374Z,89.96
2018-02-05T16:32:13.382Z,89.58
2018-02-05T16:34:06.374Z,89.96
2018-02-05T16:35:06.494Z,90.06
2018-02-05T16:36:59.431Z,89.49
2018-02-05T16:37:59.435Z,90.15
2018-02-05T16:39:52.438Z,90.06
2018-02-05T16:40:52.473Z,89.87
2018-02-05T16:42:45.491Z,89.49
2018-02-05T16:43:45.495Z,89.49
2018-02-05T16:45:38.516Z,89.58
2018-02-05T16:46:38.572Z,89.39
2018-02-05T16:48:31.573Z,90.15
2018-02-05T16:49:31.579Z,89.87
2018-02-05T16:51:24.534Z,89.96
2018-02-05T16:52:24.584Z,90.06
2018-02-05T16:54:17.579Z,89.96
2018-02-05T16:55:17.639Z,90.06
2018-02-05T16:57:10.618Z,89.77
2018-02-05T16:58:10.651Z,89.68
2018-02-05T17:00:03.711Z,90.15
2018-02-05T17:01:03.695Z,90.53
2018-02-05T17:02:56.652Z,90.53
2018-02-05T17:03:56.701Z,90.72
2018-02-05T17:05:50.206Z,91.10
2018-02-05T17:06:49.732Z,91.10
2018-02-05T17:08:42.732Z,90.96
2018-02-05T17:09:42.759Z,91.10
2018-02-05T17:11:35.765Z,91.62
2018-02-05T17:12:35.797Z,91.91
2018-02-05T17:14:28.807Z,91.72
2018-02-05T17:15:28.858Z,92.29
2018-02-05T17:17:21.915Z,92.38
2018-02-05T17:18:21.865Z,92.19
2018-02-05T17:20:14.891Z,93.04
2018-02-05T17:21:14.894Z,92.66
2018-02-05T17:23:07.903Z,92.38
2018-02-05T17:24:07.935Z,92.66
2018-02-05T17:26:00.979Z,92.57
2018-02-05T17:27:00.963Z,92.66
2018-02-05T17:28:54.095Z,92.94
2018-02-05T17:29:53.983Z,92.66
2018-02-05T17:31:46.992Z,92.85
2018-02-05T17:32:47.052Z,92.94
2018-02-05T17:34:40.006Z,93.32
2018-02-05T17:35:40.044Z,93.61
2018-02-05T17:37:33.017Z,93.42
2018-02-05T17:38:33.065Z,93.61
2018-02-05T17:40:26.058Z,94.08
2018-02-05T17:41:26.093Z,93.66
2018-02-05T17:43:19.077Z,93.94
2018-02-05T17:44:19.130Z,94.51
2018-02-05T17:46:12.141Z,94.60
2018-02-05T17:47:12.160Z,94.51
2018-02-05T17:49:05.155Z,94.79
2018-02-05T17:50:05.189Z,94.98
2018-02-05T17:51:58.168Z,95.45
2018-02-05T17:52:58.215Z,95.64
2018-02-05T17:54:51.219Z,95.36
2018-02-05T17:55:51.241Z,95.55
2018-02-05T17:57:44.220Z,95.64
2018-02-05T17:58:44.270Z,95.93
2018-02-05T18:00:37.306Z,95.93
2018-02-05T18:01:37.300Z,96.21
2018-02-05T18:03:30.273Z,96.50
2018-02-05T18:04:30.333Z,96.31
2018-02-05T18:06:23.319Z,96.21
2018-02-05T18:07:23.352Z,96.31
2018-02-05T18:09:16.351Z,96.12
2018-02-05T18:10:16.393Z,96.21
2018-02-05T18:12:09.366Z,96.88
2018-02-05T18:13:09.417Z,96.69
2018-02-05T18:15:02.427Z,96.59
2018-02-05T18:16:02.452Z,96.78
2018-02-05T18:17:55.463Z,97.06
2018-02-05T18:18:55.488Z,97.44
2018-02-05T18:20:48.464Z,97.53
2018-02-05T18:21:48.507Z,97.06
2018-02-05T18:23:41.486Z,97.44
2018-02-05T18:24:41.518Z,97.53
2018-02-05T18:26:34.511Z,97.06
2018-02-05T18:27:34.551Z,97.16
2018-02-05T18:29:27.549Z,97.72
2018-02-05T18:30:27.604Z,97.53
2018-02-05T18:32:20.628Z,97.34
2018-02-05T18:33:20.671Z,97.72